Time;durP1;ratioP1;P1;durP2;ratioP2;P2;SDS_P1;SDS_P2;PMS_P1;PMS_P2;Temp;Humidity;BMP_temperature;BMP_pressure;BME280_temperature;BME280_humidity;BME280_pressure;Samples;Min_cycle;Max_cycle;Signal;HPM_P1;HPM_P2
2022/02/19 00:00:06;;;;;;;;;;;;;;;4.99;72.50;95997.38;4984659;28;19959;-76
2022/02/19 00:02:32;;;;;;;;;;;;;;;4.98;72.10;95991.38;5006637;28;20091;-75
2022/02/19 00:04:58;;;;;;;;;;;;;;;5.00;72.16;95991.19;5005164;28;19970;-75
2022/02/19 00:07:24;;;;;;;;;;;;;;;5.00;71.69;95999.00;4980787;28;19964;-75
2022/02/19 00:09:50;;;;;;;;;;;;;;;5.00;71.04;95997.19;5005742;28;20002;-75
2022/02/19 00:12:16;;;;;;;;;;;;;;;5.00;69.82;95992.00;5008080;28;20418;-75
2022/02/19 00:14:41;;;;;;;;;;;;;;;5.02;70.29;95984.00;4986644;28;19950;-75
2022/02/19 00:17:07;;;;;;;;;;;;;;;5.03;69.99;95988.19;5006345;28;19962;-75
2022/02/19 00:19:33;;;;;;;;;;;;;;;5.04;70.02;95997.56;5008068;28;19954;-75
2022/02/19 00:21:59;;;;;;;;;;;;;;;5.02;69.41;95997.00;4991121;28;19959;-76
2022/02/19 00:24:25;;;;;;;;;;;;;;;5.02;68.50;95992.59;5002909;28;19960;-75
2022/02/19 00:26:51;;;;;;;;;;;;;;;5.02;69.80;96018.59;5002002;28;19984;-75
2022/02/19 00:29:17;;;;;;;;;;;;;;;5.02;69.43;96015.19;5004933;28;19959;-75
2022/02/19 00:31:43;;;;;;;;;;;;;;;5.02;69.16;96018.59;4991255;28;19957;-75
2022/02/19 00:34:09;;;;;;;;;;;;;;;5.01;69.17;96016.97;5003609;28;19965;-75
2022/02/19 00:36:35;;;;;;;;;;;;;;;5.00;69.02;96017.97;5001820;28;19988;-75
2022/02/19 00:39:00;;;;;;;;;;;;;;;5.00;69.17;96036.16;5001868;28;19948;-75
2022/02/19 00:41:26;;;;;;;;;;;;;;;5.00;70.35;96045.75;5006021;28;19964;-75
2022/02/19 00:43:52;;;;;;;;;;;;;;;4.96;69.39;96034.94;5004584;28;20031;-76
2022/02/19 00:46:18;;;;;;;;;;;;;;;4.97;69.26;96031.34;5003909;28;19949;-75
2022/02/19 00:48:44;;;;;;;;;;;;;;;4.94;69.81;96046.53;5007668;28;20021;-75
2022/02/19 00:51:10;;;;;;;;;;;;;;;4.94;68.30;96029.13;4983856;28;19951;-75
2022/02/19 00:53:36;;;;;;;;;;;;;;;4.96;67.88;96032.34;5002537;28;19955;-75
2022/02/19 00:56:02;;;;;;;;;;;;;;;4.97;68.58;96036.53;5004902;28;19951;-75
2022/02/19 00:58:28;;;;;;;;;;;;;;;4.98;67.79;96032.94;5006469;28;19956;-75
2022/02/19 01:00:54;;;;;;;;;;;;;;;4.97;67.48;96023.53;5005746;28;19990;-75
2022/02/19 01:03:20;;;;;;;;;;;;;;;4.97;66.20;96031.34;5003763;28;20029;-75
2022/02/19 01:05:46;;;;;;;;;;;;;;;4.94;65.83;96023.94;5001102;28;19967;-75
2022/02/19 01:08:12;;;;;;;;;;;;;;;4.95;65.46;96024.72;4987324;28;19963;-75
2022/02/19 01:10:38;;;;;;;;;;;;;;;4.94;65.32;96036.94;5005796;28;19959;-75
2022/02/19 01:13:04;;;;;;;;;;;;;;;4.94;63.94;96016.16;5003225;28;20400;-75
2022/02/19 01:15:30;;;;;;;;;;;;;;;4.96;64.93;96049.75;5003989;28;19968;-75
2022/02/19 01:17:56;;;;;;;;;;;;;;;4.95;65.92;96056.72;5002780;28;19965;-75
2022/02/19 01:20:22;;;;;;;;;;;;;;;4.94;63.45;96036.94;5000115;28;20007;-75
2022/02/19 01:22:48;;;;;;;;;;;;;;;4.95;65.43;96061.09;5003198;28;19965;-75
2022/02/19 01:25:14;;;;;;;;;;;;;;;4.93;62.54;96034.50;5008171;28;20295;-75
2022/02/19 01:27:40;;;;;;;;;;;;;;;4.92;63.38;96032.94;5003903;28;20326;-75
2022/02/19 01:30:07;;;;;;;;;;;;;;;4.90;63.96;96053.09;4997247;28;19967;-76
2022/02/19 01:32:33;;;;;;;;;;;;;;;4.88;62.73;96048.09;4996259;28;19963;-76
2022/02/19 01:34:59;;;;;;;;;;;;;;;4.86;62.13;96035.28;5002103;28;19970;-75
2022/02/19 01:37:25;;;;;;;;;;;;;;;4.86;63.80;96060.47;5004976;28;19952;-75
2022/02/19 01:39:51;;;;;;;;;;;;;;;4.84;62.54;96047.66;5007279;28;19962;-75
2022/02/19 01:42:17;;;;;;;;;;;;;;;4.82;62.54;96036.66;5001591;28;19959;-75
2022/02/19 01:44:45;;;;;;;;;;;;;;;4.82;63.09;96038.47;5001759;28;20010;-76
2022/02/19 01:47:11;;;;;;;;;;;;;;;4.79;61.83;96028.47;5001313;28;19956;-75
2022/02/19 01:49:37;;;;;;;;;;;;;;;4.78;61.99;96034.63;5016118;28;20502;-75
2022/02/19 01:52:04;;;;;;;;;;;;;;;4.75;62.40;96046.22;5027629;28;19967;-75
2022/02/19 01:54:30;;;;;;;;;;;;;;;4.71;61.31;96026.81;5027439;28;19953;-75
2022/02/19 01:56:58;;;;;;;;;;;;;;;4.71;62.24;96047.59;5026471;28;19948;-75
2022/02/19 01:59:25;;;;;;;;;;;;;;;4.73;63.88;96060.41;5024837;28;20322;-75
2022/02/19 02:01:51;;;;;;;;;;;;;;;4.71;63.08;96062.38;5027013;28;19956;-75
2022/02/19 02:04:17;;;;;;;;;;;;;;;4.68;63.49;96069.56;5033506;28;19978;-75
2022/02/19 02:06:43;;;;;;;;;;;;;;;4.68;63.94;96073.94;5027401;28;19974;-75
2022/02/19 02:09:09;;;;;;;;;;;;;;;4.67;64.32;96090.53;5026738;28;19960;-75
2022/02/19 02:11:36;;;;;;;;;;;;;;;4.65;63.07;96069.13;5030539;28;19946;-75
2022/02/19 02:14:01;;;;;;;;;;;;;;;4.62;63.95;96069.50;5008730;28;20416;-75
2022/02/19 02:16:34;;;;;;;;;;;;;;;4.60;63.35;96079.25;5025619;28;19953;-75
2022/02/19 02:18:59;;;;;;;;;;;;;;;4.57;63.27;96077.06;5025252;28;19956;-75
2022/02/19 02:21:25;;;;;;;;;;;;;;;4.55;63.95;96073.84;5006075;28;20361;-75
2022/02/19 02:23:51;;;;;;;;;;;;;;;4.53;63.04;96074.03;5018685;28;20342;-75
2022/02/19 02:26:18;;;;;;;;;;;;;;;4.53;62.87;96058.44;5024275;28;19966;-75
2022/02/19 02:28:44;;;;;;;;;;;;;;;4.52;63.29;96075.03;5026443;28;19952;-76
2022/02/19 02:31:10;;;;;;;;;;;;;;;4.51;63.27;96076.00;5025973;28;20019;-75
2022/02/19 02:33:36;;;;;;;;;;;;;;;4.50;63.46;96094.41;5028250;28;20000;-75
2022/02/19 02:36:02;;;;;;;;;;;;;;;4.46;62.79;96086.16;5024014;28;19961;-75
2022/02/19 02:38:28;;;;;;;;;;;;;;;4.43;62.90;96089.13;5025976;28;19951;-75
2022/02/19 02:40:53;;;;;;;;;;;;;;;4.41;63.09;96091.09;5003872;28;19964;-75
2022/02/19 02:43:19;;;;;;;;;;;;;;;4.37;63.05;96090.69;5031626;28;19972;-75
2022/02/19 02:45:47;;;;;;;;;;;;;;;4.37;63.22;96106.28;5008437;28;19954;-75
2022/02/19 02:48:13;;;;;;;;;;;;;;;4.34;62.42;96103.25;5020969;28;19964;-75
2022/02/19 02:50:39;;;;;;;;;;;;;;;4.32;62.46;96102.63;4997511;28;20389;-75
2022/02/19 02:53:05;;;;;;;;;;;;;;;4.30;62.34;96107.19;4996914;28;19970;-75
2022/02/19 02:55:30;;;;;;;;;;;;;;;4.29;63.10;96123.78;4996888;28;20366;-76
2022/02/19 02:57:56;;;;;;;;;;;;;;;4.29;63.25;96137.56;4996992;28;19962;-75
2022/02/19 03:00:22;;;;;;;;;;;;;;;4.30;63.24;96136.53;4997197;28;19951;-75
2022/02/19 03:02:49;;;;;;;;;;;;;;;4.29;63.93;96136.75;4995401;28;19954;-75
2022/02/19 03:05:15;;;;;;;;;;;;;;;4.27;61.58;96124.75;4996763;28;19964;-75
2022/02/19 03:07:41;;;;;;;;;;;;;;;4.30;63.31;96154.72;4996740;28;20295;-75
2022/02/19 03:10:07;;;;;;;;;;;;;;;4.29;62.25;96132.34;4996446;28;19998;-75
2022/02/19 03:12:33;;;;;;;;;;;;;;;4.27;62.24;96139.53;4997123;28;19962;-75
2022/02/19 03:14:59;;;;;;;;;;;;;;;4.25;61.04;96118.16;4996534;28;20075;-75
2022/02/19 03:17:25;;;;;;;;;;;;;;;4.24;61.91;96140.72;4996676;28;19957;-75
2022/02/19 03:19:51;;;;;;;;;;;;;;;4.25;62.93;96157.06;4996759;28;19956;-75
2022/02/19 03:22:17;;;;;;;;;;;;;;;4.25;59.92;96111.16;4996338;28;19966;-75
2022/02/19 03:24:43;;;;;;;;;;;;;;;4.25;60.57;96133.72;4996481;28;20429;-75
2022/02/19 03:27:09;;;;;;;;;;;;;;;4.25;60.58;96136.31;4996383;28;19973;-75
2022/02/19 03:29:35;;;;;;;;;;;;;;;4.24;61.20;96151.09;4996627;28;20348;-74
2022/02/19 03:32:02;;;;;;;;;;;;;;;4.27;61.49;96153.31;4996217;28;19949;-74
2022/02/19 03:34:28;;;;;;;;;;;;;;;4.26;60.25;96148.28;4995255;28;20418;-74
2022/02/19 03:36:54;;;;;;;;;;;;;;;4.24;60.87;96148.50;4996148;28;20020;-75
2022/02/19 03:39:20;;;;;;;;;;;;;;;4.25;61.24;96154.47;4996017;28;19960;-74
2022/02/19 03:41:46;;;;;;;;;;;;;;;4.25;61.49;96172.66;4995780;28;20017;-74
2022/02/19 03:44:11;;;;;;;;;;;;;;;4.23;62.43;96183.22;4996128;28;19978;-74
2022/02/19 03:46:37;;;;;;;;;;;;;;;4.21;61.72;96184.38;4995951;28;20010;-75
2022/02/19 03:49:04;;;;;;;;;;;;;;;4.18;61.45;96190.75;4996182;28;19990;-74
2022/02/19 03:51:30;;;;;;;;;;;;;;;4.17;61.74;96193.53;4995812;28;20407;-74
2022/02/19 03:53:56;;;;;;;;;;;;;;;4.14;60.88;96193.91;4994897;28;20345;-75
2022/02/19 03:56:22;;;;;;;;;;;;;;;4.16;61.53;96207.47;4995685;28;20051;-75
2022/02/19 03:58:48;;;;;;;;;;;;;;;4.13;61.66;96200.88;4995845;28;19956;-74
2022/02/19 04:01:14;;;;;;;;;;;;;;;4.13;61.40;96200.06;4995768;28;20026;-75
2022/02/19 04:03:39;;;;;;;;;;;;;;;4.09;60.92;96199.63;4995583;28;20548;-75
2022/02/19 04:06:05;;;;;;;;;;;;;;;4.06;60.83;96202.59;4995931;28;19980;-74
2022/02/19 04:08:31;;;;;;;;;;;;;;;4.05;60.97;96214.78;4995448;28;19964;-74
2022/02/19 04:10:58;;;;;;;;;;;;;;;4.05;61.26;96213.94;4995466;28;19983;-75
2022/02/19 04:13:23;;;;;;;;;;;;;;;4.02;61.51;96224.69;4995115;28;19989;-74
2022/02/19 04:15:49;;;;;;;;;;;;;;;4.01;61.59;96238.66;4995488;28;20412;-75
2022/02/19 04:18:15;;;;;;;;;;;;;;;4.00;62.10;96248.22;4995275;28;19967;-75
2022/02/19 04:20:41;;;;;;;;;;;;;;;3.97;61.51;96234.81;4995462;28;19956;-74
2022/02/19 04:23:07;;;;;;;;;;;;;;;3.96;62.25;96246.19;4995034;28;19957;-74
2022/02/19 04:25:33;;;;;;;;;;;;;;;3.95;61.81;96244.56;4995241;28;20417;-74
2022/02/19 04:28:04;;;;;;;;;;;;;;;3.90;61.43;96242.50;4995536;28;19976;-75
2022/02/19 04:30:30;;;;;;;;;;;;;;;3.87;61.22;96242.88;4995396;28;19953;-74
2022/02/19 04:32:58;;;;;;;;;;;;;;;3.86;62.27;96260.25;4995024;28;19952;-74
2022/02/19 04:35:24;;;;;;;;;;;;;;;3.84;61.50;96259.63;4994891;28;19985;-74
2022/02/19 04:37:50;;;;;;;;;;;;;;;3.81;60.54;96247.00;4995134;28;20324;-74
2022/02/19 04:40:16;;;;;;;;;;;;;;;3.75;59.66;96245.13;4993833;28;19958;-74
2022/02/19 04:42:43;;;;;;;;;;;;;;;3.71;59.25;96233.50;4994892;28;19962;-75
2022/02/19 04:45:09;;;;;;;;;;;;;;;3.69;58.03;96217.31;4994719;28;20345;-74
2022/02/19 04:47:35;;;;;;;;;;;;;;;3.66;57.12;96200.31;4994574;28;20327;-74
2022/02/19 04:50:02;;;;;;;;;;;;;;;3.63;57.69;96205.88;4995037;28;19983;-75
2022/02/19 04:52:28;;;;;;;;;;;;;;;3.63;57.89;96218.84;4994500;28;19972;-74
2022/02/19 04:54:54;;;;;;;;;;;;;;;3.62;59.08;96242.34;4994734;28;19986;-74
2022/02/19 04:57:20;;;;;;;;;;;;;;;3.61;58.93;96228.59;4993423;28;19964;-74
2022/02/19 04:59:46;;;;;;;;;;;;;;;3.59;59.08;96246.13;4994912;28;20010;-74
2022/02/19 05:02:13;;;;;;;;;;;;;;;3.58;58.18;96239.31;4994175;28;20530;-74
2022/02/19 05:04:39;;;;;;;;;;;;;;;3.55;57.97;96238.84;4994424;28;20464;-74
2022/02/19 05:07:05;;;;;;;;;;;;;;;3.52;57.46;96234.84;4994972;28;19967;-74
2022/02/19 05:09:31;;;;;;;;;;;;;;;3.52;56.78;96241.81;4994490;28;20364;-74
2022/02/19 05:11:57;;;;;;;;;;;;;;;3.49;57.79;96268.91;4994831;28;20321;-74
2022/02/19 05:14:24;;;;;;;;;;;;;;;3.44;56.06;96233.16;4992982;28;19964;-73
2022/02/19 05:16:50;;;;;;;;;;;;;;;3.41;56.08;96233.50;4994450;28;19958;-76
2022/02/19 05:19:15;;;;;;;;;;;;;;;3.36;55.48;96235.81;4993258;28;20062;-76
2022/02/19 05:21:41;;;;;;;;;;;;;;;3.33;54.21;96220.63;4994377;28;20012;-74
2022/02/19 05:24:07;;;;;;;;;;;;;;;3.31;56.00;96258.88;4993673;28;20466;-74
2022/02/19 05:26:33;;;;;;;;;;;;;;;3.31;56.50;96258.06;4994107;28;19956;-74
2022/02/19 05:28:59;;;;;;;;;;;;;;;3.28;57.20;96269.59;4994448;28;19961;-74
2022/02/19 05:31:25;;;;;;;;;;;;;;;3.25;54.48;96231.06;4994184;28;19976;-75
2022/02/19 05:33:51;;;;;;;;;;;;;;;3.27;55.89;96259.41;4994245;28;19957;-74
2022/02/19 05:36:16;;;;;;;;;;;;;;;3.24;55.92;96260.56;4994036;28;20015;-74
2022/02/19 05:38:42;;;;;;;;;;;;;;;3.23;56.32;96275.31;4993989;28;20366;-75
2022/02/19 05:41:08;;;;;;;;;;;;;;;3.21;55.17;96258.31;4994485;28;19953;-74
2022/02/19 05:43:34;;;;;;;;;;;;;;;3.18;56.17;96269.03;4993932;28;20450;-74
2022/02/19 05:46:00;;;;;;;;;;;;;;;3.17;56.66;96281.19;4994062;28;19964;-74
2022/02/19 05:48:26;;;;;;;;;;;;;;;3.16;56.62;96287.34;4993902;28;19964;-76
2022/02/19 05:50:52;;;;;;;;;;;;;;;3.14;55.00;96278.94;4994130;28;19964;-74
2022/02/19 05:53:18;;;;;;;;;;;;;;;3.13;56.10;96284.28;4993906;28;19967;-74
2022/02/19 05:55:44;;;;;;;;;;;;;;;3.12;55.64;96287.88;4993267;28;19950;-75
2022/02/19 05:58:10;;;;;;;;;;;;;;;3.11;56.46;96302.63;4994121;28;20341;-74
2022/02/19 06:00:35;;;;;;;;;;;;;;;3.09;55.28;96304.56;4994190;28;19964;-74
2022/02/19 06:03:01;;;;;;;;;;;;;;;3.10;55.78;96302.78;4993940;28;20003;-75
2022/02/19 06:05:27;;;;;;;;;;;;;;;3.10;56.88;96321.72;4993696;28;19968;-74
2022/02/19 06:07:53;;;;;;;;;;;;;;;3.10;56.74;96323.50;4993382;28;20449;-74
2022/02/19 06:10:19;;;;;;;;;;;;;;;3.09;56.94;96322.72;4993906;28;19958;-74
2022/02/19 06:12:45;;;;;;;;;;;;;;;3.09;56.89;96321.88;4993850;28;19959;-74
2022/02/19 06:15:11;;;;;;;;;;;;;;;3.07;57.29;96327.25;4993795;28;19961;-74
2022/02/19 06:17:37;;;;;;;;;;;;;;;3.05;56.36;96316.25;4993772;28;20362;-74
2022/02/19 06:20:03;;;;;;;;;;;;;;;3.02;56.62;96321.78;4993944;28;20340;-74
2022/02/19 06:22:29;;;;;;;;;;;;;;;2.98;55.43;96321.34;4992403;28;19955;-74
2022/02/19 06:24:55;;;;;;;;;;;;;;;2.96;57.11;96341.44;4993698;28;20468;-74
2022/02/19 06:27:21;;;;;;;;;;;;;;;2.96;56.73;96349.19;4993713;28;19994;-74
2022/02/19 06:29:47;;;;;;;;;;;;;;;2.97;57.43;96368.13;4993633;28;20048;-74
2022/02/19 06:32:13;;;;;;;;;;;;;;;2.98;56.26;96360.19;4993853;28;19951;-74
2022/02/19 06:34:40;;;;;;;;;;;;;;;2.97;56.70;96366.34;4976142;28;19952;-74
2022/02/19 06:37:06;;;;;;;;;;;;;;;2.99;57.34;96379.13;4996319;28;19958;-73
2022/02/19 06:39:32;;;;;;;;;;;;;;;3.02;57.26;96377.00;4997086;28;20013;-74
2022/02/19 06:41:58;;;;;;;;;;;;;;;3.07;57.09;96380.84;4997199;28;20001;-74
2022/02/19 06:44:24;;;;;;;;;;;;;;;3.07;56.83;96381.66;4996953;28;19965;-74
2022/02/19 06:46:50;;;;;;;;;;;;;;;3.09;58.34;96397.84;4995774;28;20337;-74
2022/02/19 06:49:16;;;;;;;;;;;;;;;3.17;57.03;96390.03;4996594;28;20070;-74
2022/02/19 06:51:42;;;;;;;;;;;;;;;3.22;58.12;96412.81;4996850;28;19962;-74
2022/02/19 06:54:07;;;;;;;;;;;;;;;3.36;57.82;96413.84;4997351;28;20037;-74
2022/02/19 06:56:33;;;;;;;;;;;;;;;3.45;57.57;96416.22;4996824;28;20482;-73
2022/02/19 06:58:59;;;;;;;;;;;;;;;3.52;57.66;96425.91;4996995;28;19962;-75
2022/02/19 07:01:28;;;;;;;;;;;;;;;3.57;57.06;96423.56;4996702;28;20416;-74
2022/02/19 07:03:56;;;;;;;;;;;;;;;3.60;57.84;96438.81;4996696;28;19989;-74
2022/02/19 07:06:23;;;;;;;;;;;;;;;3.69;57.73;96436.94;4996535;28;19959;-74
2022/02/19 07:08:49;;;;;;;;;;;;;;;4.12;57.64;96439.81;4996581;28;19970;-74
2022/02/19 07:11:15;;;;;;;;;;;;;;;4.74;56.99;96423.84;4996560;28;19989;-74
2022/02/19 07:13:41;;;;;;;;;;;;;;;5.31;54.37;96400.69;4995475;28;19996;-74
2022/02/19 07:16:06;;;;;;;;;;;;;;;5.69;53.02;96383.81;4996317;28;19979;-74
2022/02/19 07:18:33;;;;;;;;;;;;;;;6.01;53.96;96414.72;4997001;28;20423;-74
2022/02/19 07:20:59;;;;;;;;;;;;;;;6.21;52.96;96410.44;4996351;28;20420;-75
2022/02/19 07:23:25;;;;;;;;;;;;;;;6.21;52.25;96405.22;4996828;28;19978;-74
2022/02/19 07:25:51;;;;;;;;;;;;;;;6.23;52.87;96418.84;4996304;28;19977;-74
2022/02/19 07:28:17;;;;;;;;;;;;;;;6.40;52.45;96419.34;4996306;28;19966;-74
2022/02/19 07:30:43;;;;;;;;;;;;;;;6.40;50.62;96402.94;4996341;28;19951;-74
2022/02/19 07:33:10;;;;;;;;;;;;;;;6.25;51.66;96403.03;4996264;28;19955;-74
2022/02/19 07:35:36;;;;;;;;;;;;;;;6.13;52.65;96434.00;4996128;28;19967;-74
2022/02/19 07:38:02;;;;;;;;;;;;;;;5.89;51.19;96414.41;4996103;28;19958;-74
2022/02/19 07:40:28;;;;;;;;;;;;;;;5.65;53.61;96450.25;4996193;28;19951;-74
2022/02/19 07:42:55;;;;;;;;;;;;;;;5.46;53.62;96450.88;4995929;28;20057;-74
2022/02/19 07:45:24;;;;;;;;;;;;;;;5.28;53.90;96470.25;4995648;28;19966;-74
2022/02/19 07:47:50;;;;;;;;;;;;;;;5.23;55.65;96484.81;4995115;28;20429;-74
2022/02/19 07:58:33;;;;;;;;;;;;;;;4.97;56.18;96514.69;5005503;28;20326;-74
2022/02/19 08:01:00;;;;;;;;;;;;;;;4.90;56.03;96519.00;5000604;28;19966;-74
2022/02/19 08:03:27;;;;;;;;;;;;;;;4.84;55.18;96510.13;5004935;28;19960;-75
2022/02/19 08:05:53;;;;;;;;;;;;;;;4.74;54.56;96508.78;5011982;28;19981;-74
2022/02/19 08:08:20;;;;;;;;;;;;;;;4.69;55.82;96530.13;4994553;28;19971;-74
2022/02/19 08:10:46;;;;;;;;;;;;;;;4.66;55.14;96526.09;5007968;28;20409;-74
2022/02/19 08:13:12;;;;;;;;;;;;;;;4.65;56.96;96558.22;5001806;28;20033;-74
2022/02/19 08:15:38;;;;;;;;;;;;;;;4.65;56.74;96555.63;5004292;28;19963;-74
2022/02/19 08:18:05;;;;;;;;;;;;;;;4.61;56.91;96554.38;5008452;28;19958;-74
2022/02/19 08:20:32;;;;;;;;;;;;;;;4.58;55.67;96546.16;4992750;28;19965;-75
2022/02/19 08:22:58;;;;;;;;;;;;;;;4.57;56.19;96555.72;5002096;28;19959;-74
2022/02/19 08:25:24;;;;;;;;;;;;;;;4.53;55.95;96553.66;5001259;28;20356;-74
2022/02/19 08:27:50;;;;;;;;;;;;;;;4.46;54.32;96543.16;5014513;28;19963;-74
2022/02/19 08:30:16;;;;;;;;;;;;;;;4.43;55.36;96567.69;5003794;28;19966;-74
2022/02/19 08:32:42;;;;;;;;;;;;;;;4.42;54.44;96553.09;5005823;28;20042;-74
2022/02/19 08:35:08;;;;;;;;;;;;;;;4.42;55.73;96568.66;4999875;28;20476;-75
2022/02/19 08:37:34;;;;;;;;;;;;;;;4.45;56.23;96585.69;4997003;28;19960;-74
2022/02/19 08:40:00;;;;;;;;;;;;;;;4.49;55.16;96571.38;5004549;28;20440;-74
2022/02/19 08:42:26;;;;;;;;;;;;;;;4.58;55.87;96585.09;5005092;28;19963;-74
2022/02/19 08:44:52;;;;;;;;;;;;;;;4.68;55.40;96583.03;5003510;28;20062;-74
2022/02/19 08:47:18;;;;;;;;;;;;;;;4.73;52.94;96548.75;4985352;28;19964;-74
2022/02/19 08:49:44;;;;;;;;;;;;;;;4.94;53.35;96556.66;4995109;28;20340;-74
2022/02/19 08:52:10;;;;;;;;;;;;;;;5.33;54.26;96565.13;4995022;28;19961;-74
2022/02/19 08:54:36;;;;;;;;;;;;;;;5.83;51.09;96514.84;4994605;28;19966;-75
2022/02/19 08:57:02;;;;;;;;;;;;;;;6.09;50.43;96514.31;4994590;28;19959;-74
2022/02/19 08:59:28;;;;;;;;;;;;;;;6.58;50.63;96509.25;4995158;28;19955;-74
2022/02/19 09:01:56;;;;;;;;;;;;;;;6.74;50.80;96514.19;4994488;28;19969;-75
2022/02/19 09:04:22;;;;;;;;;;;;;;;6.93;48.48;96488.38;4994609;28;19971;-74
2022/02/19 09:06:48;;;;;;;;;;;;;;;7.09;48.43;96496.69;4994596;28;20421;-75
2022/02/19 09:09:14;;;;;;;;;;;;;;;7.39;48.03;96485.97;4995177;28;19963;-74
2022/02/19 09:11:40;;;;;;;;;;;;;;;7.79;48.15;96487.84;4994340;28;20022;-75
2022/02/19 09:14:06;;;;;;;;;;;;;;;8.06;45.72;96459.94;4994653;28;19966;-75
2022/02/19 09:16:34;;;;;;;;;;;;;;;8.36;45.44;96436.00;4994481;28;19958;-74
2022/02/19 09:19:01;;;;;;;;;;;;;;;8.64;46.29;96467.94;4994184;28;19961;-75
2022/02/19 09:21:28;;;;;;;;;;;;;;;8.73;43.96;96421.47;4994213;28;20290;-74
2022/02/19 09:23:54;;;;;;;;;;;;;;;8.76;45.37;96609.31;4994224;28;20442;-75
2022/02/19 09:26:21;;;;;;;;;;;;;;;8.81;43.82;96627.81;4994585;28;19958;-74
2022/02/19 09:28:47;;;;;;;;;;;;;;;8.75;42.61;96652.16;4994702;28;19959;-75
2022/02/19 09:31:13;;;;;;;;;;;;;;;8.62;46.08;96693.97;4994219;28;19959;-75
2022/02/19 09:33:39;;;;;;;;;;;;;;;8.59;44.99;96700.41;4994112;28;19950;-76
2022/02/19 09:36:06;;;;;;;;;;;;;;;8.64;45.44;96712.88;4993018;28;20025;-75
2022/02/19 09:38:32;;;;;;;;;;;;;;;8.71;44.99;96711.91;4994087;28;19952;-75
2022/02/19 09:41:00;;;;;;;;;;;;;;;8.77;45.29;96709.50;4994541;28;19963;-76
2022/02/19 09:43:27;;;;;;;;;;;;;;;8.78;44.91;96711.91;4993045;28;19973;-75
2022/02/19 09:45:53;;;;;;;;;;;;;;;8.67;45.17;96696.78;4993936;28;19963;-75
2022/02/19 09:48:21;;;;;;;;;;;;;;;8.61;45.06;96700.19;4994010;28;19958;-76
2022/02/19 09:50:51;;;;;;;;;;;;;;;8.71;43.96;96703.22;5004851;28;19958;-75
2022/02/19 09:53:17;;;;;;;;;;;;;;;8.81;44.46;96708.09;5002138;28;19962;-76
2022/02/19 09:55:43;;;;;;;;;;;;;;;8.92;42.62;96710.09;5006331;28;19955;-75
2022/02/19 09:58:09;;;;;;;;;;;;;;;9.05;44.26;96719.75;4990665;28;19969;-75
2022/02/19 10:00:35;;;;;;;;;;;;;;;9.19;44.30;96713.50;5002107;28;20033;-75
2022/02/19 10:03:01;;;;;;;;;;;;;;;9.26;44.57;96723.97;5004274;28;19964;-75
2022/02/19 10:05:31;;;;;;;;;;;;;;;9.18;44.36;96719.78;5000909;28;20022;-74
2022/02/19 10:08:02;;;;;;;;;;;;;;;8.99;42.71;96715.31;4983716;28;19954;-75
2022/02/19 10:10:28;;;;;;;;;;;;;;;8.69;42.64;96726.16;4995978;28;19962;-74
2022/02/19 10:12:54;;;;;;;;;;;;;;;8.27;43.46;96731.47;5004944;28;19958;-75
2022/02/19 10:15:20;;;;;;;;;;;;;;;7.98;43.95;96729.94;5010219;28;20413;-75
2022/02/19 10:17:46;;;;;;;;;;;;;;;7.79;45.02;96734.06;5010930;28;19958;-75
2022/02/19 10:20:14;;;;;;;;;;;;;;;7.49;44.14;96731.66;5006121;28;19981;-75
2022/02/19 10:22:41;;;;;;;;;;;;;;;7.66;45.15;96732.19;4990630;28;20364;-74
2022/02/19 10:25:08;;;;;;;;;;;;;;;7.80;44.26;96740.09;5004073;28;19969;-74
2022/02/19 10:27:43;;;;;;;;;;;;;;;7.77;44.33;96737.84;5014023;28;19961;-74
2022/02/19 10:30:09;;;;;;;;;;;;;;;7.73;43.97;96734.84;5008257;28;20327;-75
2022/02/19 10:32:45;;;;;;;;;;;;;;;7.72;45.19;96738.44;5003049;28;19951;-74
2022/02/19 10:35:11;;;;;;;;;;;;;;;7.86;46.17;96750.56;5005518;28;19983;-74
2022/02/19 10:37:47;;;;;;;;;;;;;;;7.84;43.76;96734.28;5008942;28;19947;-74
2022/02/19 10:40:25;;;;;;;;;;;;;;;7.85;44.83;96732.47;4990205;28;19961;-74
2022/02/19 10:42:53;;;;;;;;;;;;;;;8.12;44.41;96741.25;5005915;28;20323;-74
2022/02/19 10:45:19;;;;;;;;;;;;;;;8.39;43.30;96734.31;5005991;28;19976;-74
2022/02/19 10:47:45;;;;;;;;;;;;;;;8.53;45.19;96738.59;5005823;28;19957;-75
2022/02/19 10:50:21;;;;;;;;;;;;;;;8.60;41.48;96736.00;5025814;28;20446;-75
2022/02/19 10:52:54;;;;;;;;;;;;;;;8.73;44.28;96732.59;5032311;28;19957;-75
2022/02/19 10:55:23;;;;;;;;;;;;;;;8.94;42.81;96734.25;5022865;28;19955;-75
2022/02/19 10:57:55;;;;;;;;;;;;;;;9.25;44.33;96730.22;5026476;28;19980;-75
2022/02/19 11:00:22;;;;;;;;;;;;;;;9.55;44.00;96731.41;5027241;28;20347;-75
2022/02/19 11:02:48;;;;;;;;;;;;;;;9.78;41.68;96727.53;5027367;28;19958;-75
2022/02/19 11:05:15;;;;;;;;;;;;;;;9.90;40.58;96722.47;5010289;28;19965;-74
2022/02/19 11:07:42;;;;;;;;;;;;;;;9.96;41.37;96732.13;5029917;28;19953;-75
2022/02/19 11:10:14;;;;;;;;;;;;;;;9.93;41.04;96735.97;5022521;28;20412;-75
2022/02/19 11:12:40;;;;;;;;;;;;;;;9.97;41.85;96741.56;5019400;28;19963;-74
2022/02/19 11:15:07;;;;;;;;;;;;;;;10.16;41.95;96743.34;5029558;28;19968;-75
2022/02/19 11:17:36;;;;;;;;;;;;;;;10.35;40.08;96736.44;5009890;28;19954;-76
2022/02/19 11:20:04;;;;;;;;;;;;;;;10.33;40.77;96740.25;5025548;28;20362;-74
2022/02/19 11:22:31;;;;;;;;;;;;;;;10.46;39.75;96728.94;5019316;28;20307;-75
2022/02/19 11:25:00;;;;;;;;;;;;;;;10.35;39.77;96736.44;5028700;28;19972;-75
2022/02/19 11:27:27;;;;;;;;;;;;;;;10.35;40.82;96739.06;5032796;28;20331;-75
2022/02/19 11:29:54;;;;;;;;;;;;;;;10.28;37.85;96724.34;5028402;28;19954;-75
2022/02/19 11:32:21;;;;;;;;;;;;;;;10.05;40.65;96728.25;5021736;28;20326;-75
2022/02/19 11:34:48;;;;;;;;;;;;;;;9.82;38.73;96715.63;5023836;28;19959;-75
2022/02/19 11:37:16;;;;;;;;;;;;;;;9.78;39.92;96726.72;5028742;28;19952;-74
2022/02/19 11:40:02;;;;;;;;;;;;;;;9.78;38.98;96722.28;5027001;28;20328;-76
2022/02/19 11:42:38;;;;;;;;;;;;;;;9.83;40.41;96724.31;5027520;28;19964;-75
2022/02/19 11:45:23;;;;;;;;;;;;;;;9.87;38.82;96707.13;5012542;28;19983;-75
2022/02/19 11:47:50;;;;;;;;;;;;;;;9.99;39.93;96710.72;5019576;28;19957;-75
2022/02/19 11:50:16;;;;;;;;;;;;;;;9.91;38.31;96696.06;5027864;28;20336;-75
2022/02/19 11:52:42;;;;;;;;;;;;;;;9.87;40.05;96710.59;5010510;28;20001;-75
2022/02/19 11:55:28;;;;;;;;;;;;;;;10.02;39.22;96693.81;5034376;28;20381;-76
2022/02/19 11:58:02;;;;;;;;;;;;;;;10.32;40.12;96707.22;5008774;28;19956;-75
2022/02/19 12:00:47;;;;;;;;;;;;;;;10.54;38.36;96684.91;5026775;28;19962;-75
2022/02/19 12:03:15;;;;;;;;;;;;;;;10.84;36.94;96689.53;5024977;28;20404;-75
2022/02/19 12:06:00;;;;;;;;;;;;;;;10.95;36.07;96686.22;5020930;28;20334;-75
2022/02/19 12:08:26;;;;;;;;;;;;;;;10.88;36.47;96682.06;5019034;28;19966;-75
2022/02/19 12:11:05;;;;;;;;;;;;;;;10.81;36.94;96689.94;5025031;28;19960;-75
2022/02/19 12:13:50;;;;;;;;;;;;;;;10.66;37.57;96692.09;5025724;28;19956;-75
2022/02/19 12:16:28;;;;;;;;;;;;;;;10.38;38.82;96690.63;5008378;28;19954;-75
2022/02/19 12:18:58;;;;;;;;;;;;;;;10.12;38.29;96683.66;5023892;28;19970;-75
2022/02/19 12:21:33;;;;;;;;;;;;;;;9.93;38.88;96682.75;5017439;28;20314;-76
2022/02/19 12:24:12;;;;;;;;;;;;;;;9.58;39.04;96675.22;5020067;28;20332;-75
2022/02/19 12:26:57;;;;;;;;;;;;;;;9.57;40.15;96680.66;5022139;28;19973;-75
2022/02/19 12:29:30;;;;;;;;;;;;;;;9.50;40.40;96680.66;5007926;28;20439;-75
2022/02/19 12:32:06;;;;;;;;;;;;;;;9.29;39.70;96679.09;5027515;28;19968;-75
2022/02/19 12:34:32;;;;;;;;;;;;;;;9.05;37.97;96675.28;5028805;28;19954;-75
2022/02/19 12:36:59;;;;;;;;;;;;;;;9.05;38.76;96686.56;5024956;28;19947;-75
2022/02/19 12:39:25;;;;;;;;;;;;;;;8.92;38.06;96684.75;5026578;28;19960;-75
2022/02/19 12:41:55;;;;;;;;;;;;;;;8.88;38.34;96695.81;5007235;28;19960;-75
2022/02/19 12:44:22;;;;;;;;;;;;;;;8.78;38.10;96690.16;5003342;28;20409;-75
2022/02/19 12:46:49;;;;;;;;;;;;;;;8.80;38.37;96688.97;5022348;28;19971;-75
2022/02/19 12:49:17;;;;;;;;;;;;;;;8.74;37.28;96674.88;5027714;28;19989;-75
2022/02/19 12:51:44;;;;;;;;;;;;;;;8.75;38.65;96686.16;5026569;28;20413;-75
2022/02/19 12:54:10;;;;;;;;;;;;;;;8.82;38.69;96691.38;5024883;28;19959;-75
2022/02/19 12:56:37;;;;;;;;;;;;;;;8.88;38.02;96690.56;5023673;28;20414;-75
2022/02/19 12:59:03;;;;;;;;;;;;;;;8.84;38.66;96676.28;5023966;28;19953;-75
2022/02/19 13:01:29;;;;;;;;;;;;;;;8.92;37.86;96665.63;5019205;28;20684;-75